Time;durP1;ratioP1;P1;durP2;ratioP2;P2;SDS_P1;SDS_P2;PMS_P1;PMS_P2;Temp;Humidity;BMP_temperature;BMP_pressure;BME280_temperature;BME280_humidity;BME280_pressure;Samples;Min_cycle;Max_cycle;Signal;HPM_P1;HPM_P2
2024/03/07 00:00:44;;;;;;;9.55;8.05;;;;;;;;;;5074950;28;20016;-78
2024/03/07 00:03:10;;;;;;;12.35;8.32;;;;;;;;;;5074025;28;20036;-78
2024/03/07 00:05:36;;;;;;;10.07;7.43;;;;;;;;;;5056000;28;20429;-78
2024/03/07 00:08:03;;;;;;;10.13;8.02;;;;;;;;;;5073731;28;20036;-78
2024/03/07 00:10:29;;;;;;;8.30;7.10;;;;;;;;;;5068819;28;20540;-78
2024/03/07 00:12:55;;;;;;;8.80;7.57;;;;;;;;;;5073356;28;20032;-79
2024/03/07 00:15:21;;;;;;;10.27;7.50;;;;;;;;;;5074468;28;20024;-78
2024/03/07 00:17:47;;;;;;;8.95;6.72;;;;;;;;;;5060214;28;20541;-78
2024/03/07 00:20:19;;;;;;;8.57;6.57;;;;;;;;;;5075417;28;20028;-77
2024/03/07 00:22:45;;;;;;;9.45;7.22;;;;;;;;;;5071343;28;20029;-78
2024/03/07 00:25:13;;;;;;;7.55;5.80;;;;;;;;;;5087669;28;20021;-79
2024/03/07 00:27:39;;;;;;;9.45;6.32;;;;;;;;;;5060844;28;20044;-78
2024/03/07 00:30:08;;;;;;;15.77;10.32;;;;;;;;;;5075108;28;20075;-78
2024/03/07 00:32:39;;;;;;;11.27;8.20;;;;;;;;;;5092942;28;20030;-79
2024/03/07 00:35:08;;;;;;;9.23;7.80;;;;;;;;;;5096015;28;20035;-78
2024/03/07 00:37:35;;;;;;;9.75;7.50;;;;;;;;;;5096292;28;20034;-77
2024/03/07 00:40:01;;;;;;;9.82;7.07;;;;;;;;;;5087959;28;20494;-78
2024/03/07 00:42:27;;;;;;;10.00;6.70;;;;;;;;;;5098850;28;20044;-79
2024/03/07 00:44:53;;;;;;;10.63;8.32;;;;;;;;;;5100300;28;20058;-78
2024/03/07 00:47:19;;;;;;;12.35;8.38;;;;;;;;;;5087883;28;20129;-77
2024/03/07 00:49:49;;;;;;;12.60;8.95;;;;;;;;;;5065387;28;20031;-79
2024/03/07 00:52:15;;;;;;;9.95;7.30;;;;;;;;;;5077742;28;20035;-78
2024/03/07 00:54:41;;;;;;;10.05;7.10;;;;;;;;;;5067034;28;20475;-79
2024/03/07 00:57:08;;;;;;;9.57;6.78;;;;;;;;;;5079182;28;20526;-78
2024/03/07 00:59:35;;;;;;;9.25;6.57;;;;;;;;;;5084722;28;20017;-79
2024/03/07 01:02:01;;;;;;;7.28;5.80;;;;;;;;;;5093009;28;20016;-79
2024/03/07 01:04:30;;;;;;;6.95;5.57;;;;;;;;;;5082576;28;20058;-80
2024/03/07 01:07:00;;;;;;;7.70;5.75;;;;;;;;;;5076892;28;20056;-78
2024/03/07 01:09:28;;;;;;;7.55;5.60;;;;;;;;;;5076498;28;20386;-79
2024/03/07 01:11:54;;;;;;;5.85;4.85;;;;;;;;;;5077938;28;20471;-77
2024/03/07 01:14:21;;;;;;;5.03;4.45;;;;;;;;;;5064577;28;20032;-78
2024/03/07 01:16:47;;;;;;;5.90;4.65;;;;;;;;;;5077978;28;20411;-78
2024/03/07 01:19:14;;;;;;;6.00;4.28;;;;;;;;;;5077575;28;20424;-78
2024/03/07 01:21:41;;;;;;;5.47;4.07;;;;;;;;;;5081147;28;20395;-79
2024/03/07 01:24:07;;;;;;;5.93;4.43;;;;;;;;;;5063514;28;20084;-79
2024/03/07 01:26:33;;;;;;;4.15;3.50;;;;;;;;;;5084220;28;20028;-78
2024/03/07 01:28:59;;;;;;;6.15;4.30;;;;;;;;;;5079435;28;20021;-79
2024/03/07 01:31:26;;;;;;;8.13;5.97;;;;;;;;;;5080815;28;20019;-78
2024/03/07 01:33:52;;;;;;;8.30;5.97;;;;;;;;;;5078553;28;20012;-79
2024/03/07 01:36:20;;;;;;;9.07;6.40;;;;;;;;;;5077363;28;20116;-78
2024/03/07 01:38:46;;;;;;;10.13;7.22;;;;;;;;;;5078374;28;20428;-78
2024/03/07 01:41:14;;;;;;;8.75;6.20;;;;;;;;;;5069646;28;20120;-78
2024/03/07 01:43:40;;;;;;;10.75;7.22;;;;;;;;;;5076479;28;20013;-77
2024/03/07 01:46:06;;;;;;;13.18;8.50;;;;;;;;;;5066751;28;20028;-77
2024/03/07 01:48:32;;;;;;;21.27;13.13;;;;;;;;;;5070541;28;20020;-79
2024/03/07 01:50:59;;;;;;;21.10;12.90;;;;;;;;;;5066523;28;20421;-77
2024/03/07 01:53:26;;;;;;;19.77;12.82;;;;;;;;;;5074668;28;20023;-78
2024/03/07 01:55:53;;;;;;;19.75;13.23;;;;;;;;;;5076162;28;20017;-79
2024/03/07 01:58:21;;;;;;;20.65;14.27;;;;;;;;;;5076166;28;20051;-78
2024/03/07 02:00:47;;;;;;;25.02;13.88;;;;;;;;;;5084750;28;20032;-78
2024/03/07 02:03:17;;;;;;;19.95;13.15;;;;;;;;;;5084372;28;20039;-77
2024/03/07 02:05:43;;;;;;;16.85;10.88;;;;;;;;;;5076050;28;20036;-79
2024/03/07 02:08:09;;;;;;;15.13;10.30;;;;;;;;;;5076410;28;20645;-78
2024/03/07 02:10:36;;;;;;;13.55;9.95;;;;;;;;;;5074881;28;20023;-79
2024/03/07 02:13:02;;;;;;;25.05;15.65;;;;;;;;;;5080437;28;20082;-78
2024/03/07 02:15:28;;;;;;;22.63;15.23;;;;;;;;;;5087479;28;20055;-79
2024/03/07 02:17:55;;;;;;;29.38;17.08;;;;;;;;;;5089035;28;20070;-79
2024/03/07 02:20:22;;;;;;;27.95;18.55;;;;;;;;;;5080966;28;20482;-78
2024/03/07 02:22:48;;;;;;;27.75;17.70;;;;;;;;;;5082293;28;20477;-78
2024/03/07 02:25:15;;;;;;;29.02;17.98;;;;;;;;;;5061272;28;20029;-78
2024/03/07 02:27:41;;;;;;;29.65;18.02;;;;;;;;;;5061437;28;20025;-78
2024/03/07 02:30:08;;;;;;;27.20;17.70;;;;;;;;;;5063725;28;20017;-79
2024/03/07 02:32:36;;;;;;;24.05;16.13;;;;;;;;;;5085548;28;20387;-79
2024/03/07 02:35:03;;;;;;;31.95;18.60;;;;;;;;;;5078904;28;20082;-78
2024/03/07 02:37:29;;;;;;;28.08;17.58;;;;;;;;;;5074926;28;20021;-77
2024/03/07 02:39:55;;;;;;;25.58;16.38;;;;;;;;;;5073823;28;20032;-78
2024/03/07 02:42:21;;;;;;;23.25;15.80;;;;;;;;;;5074552;28;20085;-78
2024/03/07 02:44:47;;;;;;;25.25;15.90;;;;;;;;;;5077002;28;20036;-78
2024/03/07 02:47:13;;;;;;;37.78;22.17;;;;;;;;;;5076430;28;20043;-79
2024/03/07 02:49:39;;;;;;;33.80;20.60;;;;;;;;;;5074836;28;20032;-78
2024/03/07 02:52:10;;;;;;;30.08;19.58;;;;;;;;;;5074067;28;20115;-78
2024/03/07 02:54:36;;;;;;;30.30;19.38;;;;;;;;;;5074052;28;20093;-78
2024/03/07 02:57:02;;;;;;;25.98;18.45;;;;;;;;;;5074506;28;20063;-78
2024/03/07 02:59:28;;;;;;;32.90;20.45;;;;;;;;;;5074375;28;20495;-78
2024/03/07 03:01:55;;;;;;;34.83;22.13;;;;;;;;;;5056887;28;20021;-79
2024/03/07 03:04:21;;;;;;;34.92;21.98;;;;;;;;;;5075701;28;20410;-79
2024/03/07 03:06:47;;;;;;;32.00;20.77;;;;;;;;;;5084958;28;20491;-79
2024/03/07 03:09:17;;;;;;;31.38;19.52;;;;;;;;;;5086096;28;20009;-77
2024/03/07 03:11:43;;;;;;;36.83;21.52;;;;;;;;;;5093318;28;20039;-78
2024/03/07 03:14:10;;;;;;;30.75;20.23;;;;;;;;;;5086233;28;20032;-79
2024/03/07 04:17:48;;;;;;;33.72;20.25;;;;;;;;;;5051162;28;20429;-75
2024/03/07 04:20:16;;;;;;;30.90;19.80;;;;;;;;;;5054190;28;20108;-76
2024/03/07 04:22:42;;;;;;;32.00;20.40;;;;;;;;;;5055072;28;20045;-76
2024/03/07 04:25:09;;;;;;;28.10;17.98;;;;;;;;;;5038496;28;20025;-76
2024/03/07 04:27:39;;;;;;;31.27;19.40;;;;;;;;;;5055754;28;20033;-77
2024/03/07 04:30:06;;;;;;;34.13;21.55;;;;;;;;;;5039872;28;20021;-79
2024/03/07 04:32:35;;;;;;;33.05;20.52;;;;;;;;;;5058545;28;20059;-76
2024/03/07 04:35:03;;;;;;;36.60;21.25;;;;;;;;;;5059684;28;20507;-77
2024/03/07 04:37:30;;;;;;;40.92;23.15;;;;;;;;;;5059334;28;20048;-76
2024/03/07 04:39:58;;;;;;;39.85;23.70;;;;;;;;;;5047471;28;20079;-75
2024/03/07 04:42:27;;;;;;;36.78;23.20;;;;;;;;;;5055040;28;20021;-76
2024/03/07 04:45:02;;;;;;;37.42;22.27;;;;;;;;;;5061753;28;20021;-78
2024/03/07 04:47:35;;;;;;;32.85;20.80;;;;;;;;;;5055130;28;20039;-76
2024/03/07 04:50:02;;;;;;;30.75;19.58;;;;;;;;;;5061467;28;20474;-77
2024/03/07 04:52:35;;;;;;;32.95;20.10;;;;;;;;;;5061560;28;20087;-77
2024/03/07 04:55:09;;;;;;;29.35;18.73;;;;;;;;;;5053993;28;20033;-76
2024/03/07 04:57:44;;;;;;;30.27;19.95;;;;;;;;;;5049690;28;20463;-77
2024/03/07 05:00:18;;;;;;;29.45;19.08;;;;;;;;;;5057918;28;20055;-78
2024/03/07 05:02:45;;;;;;;31.00;19.20;;;;;;;;;;5040364;28;20033;-75
2024/03/07 05:05:12;;;;;;;31.38;20.23;;;;;;;;;;5059688;28;20028;-76
2024/03/07 05:07:41;;;;;;;33.25;21.67;;;;;;;;;;5058508;28;20027;-75
2024/03/07 05:10:08;;;;;;;35.30;21.33;;;;;;;;;;5049980;28;20032;-76
2024/03/07 05:12:41;;;;;;;37.65;22.35;;;;;;;;;;5053563;28;20021;-75
2024/03/07 05:15:11;;;;;;;37.05;21.30;;;;;;;;;;5045585;28;20375;-76
2024/03/07 05:18:00;;;;;;;37.75;23.45;;;;;;;;;;5061787;28;20112;-76
2024/03/07 05:20:28;;;;;;;36.65;21.83;;;;;;;;;;5060632;28;20131;-75
2024/03/07 05:22:58;;;;;;;38.10;23.88;;;;;;;;;;5066973;28;20021;-76
2024/03/07 05:25:25;;;;;;;41.80;22.55;;;;;;;;;;5038674;28;20110;-77
2024/03/07 05:27:51;;;;;;;38.35;24.77;;;;;;;;;;5061991;28;20021;-76
2024/03/07 05:30:19;;;;;;;40.22;24.48;;;;;;;;;;5062104;28;20081;-76
2024/03/07 05:32:49;;;;;;;40.63;23.42;;;;;;;;;;5058866;28;20099;-76
2024/03/07 05:35:15;;;;;;;42.25;24.40;;;;;;;;;;5062567;28;20033;-77
2024/03/07 05:37:49;;;;;;;45.70;24.55;;;;;;;;;;5066826;28;20083;-75
2024/03/07 05:40:16;;;;;;;39.60;23.88;;;;;;;;;;5069498;28;20068;-76
2024/03/07 05:42:43;;;;;;;46.10;26.30;;;;;;;;;;5070722;28;20028;-78
2024/03/07 05:45:14;;;;;;;45.67;26.10;;;;;;;;;;5043005;28;20053;-77
2024/03/07 05:47:43;;;;;;;45.15;26.30;;;;;;;;;;5053825;28;20084;-76
2024/03/07 05:50:10;;;;;;;43.78;26.13;;;;;;;;;;5067481;28;20025;-77
2024/03/07 05:52:44;;;;;;;41.53;25.50;;;;;;;;;;5067238;28;20017;-76
2024/03/07 05:55:13;;;;;;;50.47;28.08;;;;;;;;;;5071970;28;20033;-76
2024/03/07 05:57:42;;;;;;;47.15;27.95;;;;;;;;;;5053517;28;20028;-79
2024/03/07 06:00:11;;;;;;;42.22;25.30;;;;;;;;;;5062592;28;20479;-80
2024/03/07 06:02:37;;;;;;;41.20;25.60;;;;;;;;;;5053550;28;20005;-75
2024/03/07 06:05:09;;;;;;;35.45;23.55;;;;;;;;;;5076497;28;20021;-75
2024/03/07 06:07:35;;;;;;;44.08;26.45;;;;;;;;;;5077448;28;20009;-74
2024/03/07 06:10:03;;;;;;;45.55;26.35;;;;;;;;;;5070713;28;20032;-74
2024/03/07 06:12:32;;;;;;;47.08;27.17;;;;;;;;;;5075538;28;20013;-77
2024/03/07 06:15:00;;;;;;;42.95;26.00;;;;;;;;;;5076849;28;20017;-76
2024/03/07 06:17:26;;;;;;;43.88;26.52;;;;;;;;;;5068571;28;20025;-76
2024/03/07 06:19:53;;;;;;;39.05;24.45;;;;;;;;;;5058149;28;20024;-74
2024/03/07 06:22:41;;;;;;;41.40;24.35;;;;;;;;;;5069618;28;20116;-78
2024/03/07 06:25:07;;;;;;;41.67;23.27;;;;;;;;;;5066923;28;20036;-78
2024/03/07 06:27:37;;;;;;;38.08;22.65;;;;;;;;;;5073045;28;20017;-77
2024/03/07 06:30:05;;;;;;;38.50;22.60;;;;;;;;;;5069561;28;20021;-77
2024/03/07 06:32:34;;;;;;;40.58;24.13;;;;;;;;;;5059078;28;20013;-75
2024/03/07 06:35:04;;;;;;;45.50;26.55;;;;;;;;;;5074113;28;20021;-75
2024/03/07 06:37:30;;;;;;;45.25;25.58;;;;;;;;;;5072163;28;20128;-76
2024/03/07 06:39:56;;;;;;;39.58;24.73;;;;;;;;;;5060675;28;20059;-77
2024/03/07 06:42:22;;;;;;;43.40;25.77;;;;;;;;;;5074918;28;20069;-75
2024/03/07 06:44:49;;;;;;;44.03;26.92;;;;;;;;;;5075524;28;20044;-75
2024/03/07 06:47:17;;;;;;;40.03;24.38;;;;;;;;;;5049312;28;20044;-77
2024/03/07 06:49:43;;;;;;;40.28;24.48;;;;;;;;;;5061036;28;20021;-77
2024/03/07 06:52:09;;;;;;;38.22;24.25;;;;;;;;;;5058780;28;20049;-77
2024/03/07 06:54:36;;;;;;;33.50;21.75;;;;;;;;;;5059187;28;20025;-78
2024/03/07 06:57:02;;;;;;;34.78;21.80;;;;;;;;;;5058092;28;20067;-79
2024/03/07 06:59:31;;;;;;;32.70;19.73;;;;;;;;;;5057678;28;20108;-79
2024/03/07 07:01:58;;;;;;;30.88;19.30;;;;;;;;;;5052190;28;20392;-78
2024/03/07 07:04:27;;;;;;;29.52;18.52;;;;;;;;;;5066715;28;20056;-75
2024/03/07 07:06:53;;;;;;;35.22;20.85;;;;;;;;;;5076359;28;20093;-76
2024/03/07 07:09:22;;;;;;;29.50;19.05;;;;;;;;;;5078311;28;20072;-77
2024/03/07 07:11:48;;;;;;;33.65;20.35;;;;;;;;;;5072248;28;20063;-77
2024/03/07 07:14:14;;;;;;;32.42;20.10;;;;;;;;;;5060540;28;20064;-79
2024/03/07 07:16:45;;;;;;;29.67;20.23;;;;;;;;;;5058111;28;20017;-79
2024/03/07 07:19:12;;;;;;;31.42;19.85;;;;;;;;;;5057969;28;20036;-78
2024/03/07 07:21:41;;;;;;;38.45;24.35;;;;;;;;;;5058605;28;20039;-79
2024/03/07 07:24:07;;;;;;;38.45;23.77;;;;;;;;;;5059904;28;20032;-80
2024/03/07 07:26:36;;;;;;;37.88;23.13;;;;;;;;;;5061078;28;20009;-78
2024/03/07 07:29:04;;;;;;;40.25;23.42;;;;;;;;;;5051262;28;20087;-79
2024/03/07 07:31:33;;;;;;;35.15;21.88;;;;;;;;;;5057465;28;20017;-79
2024/03/07 07:33:59;;;;;;;36.33;22.35;;;;;;;;;;5042596;28;20021;-78
2024/03/07 07:36:26;;;;;;;36.85;23.55;;;;;;;;;;5039323;28;20024;-79
2024/03/07 07:38:52;;;;;;;37.30;22.02;;;;;;;;;;5038861;28;20097;-77
2024/03/07 07:41:18;;;;;;;37.00;23.83;;;;;;;;;;5059023;28;20045;-79
2024/03/07 07:43:45;;;;;;;41.33;25.80;;;;;;;;;;5057980;28;20024;-78
2024/03/07 07:46:13;;;;;;;43.95;27.48;;;;;;;;;;5058231;28;20033;-80
2024/03/07 07:48:46;;;;;;;43.65;26.67;;;;;;;;;;5057365;28;20024;-80
2024/03/07 07:51:25;;;;;;;;;;;;;;;;;;;;;
2024/03/07 07:53:56;;;;;;;40.70;26.02;;;;;;;;;;5058399;28;20085;-80
2024/03/07 07:59:32;;;;;;;41.38;24.65;;;;;;;;;;5053379;28;20055;-80
2024/03/07 08:01:58;;;;;;;;;;;;;;;;;;5060067;28;20028;-80
2024/03/07 08:04:24;;;;;;;39.22;23.90;;;;;;;;;;5061951;28;19959;-78
2024/03/07 08:06:58;;;;;;;39.30;24.00;;;;;;;;;;5065736;28;20021;-79
2024/03/07 08:09:27;;;;;;;35.38;21.17;;;;;;;;;;5064765;28;20017;-78
2024/03/07 08:11:56;;;;;;;34.20;21.20;;;;;;;;;;5061842;28;20123;-77
2024/03/07 08:14:22;;;;;;;39.35;23.73;;;;;;;;;;5059103;28;20032;-77
2024/03/07 08:16:51;;;;;;;39.95;24.80;;;;;;;;;;5047923;28;20119;-78
2024/03/07 08:19:17;;;;;;;41.55;25.15;;;;;;;;;;5054363;28;20091;-77
2024/03/07 08:21:46;;;;;;;38.00;23.88;;;;;;;;;;5054832;28;20031;-77
2024/03/07 08:24:12;;;;;;;36.92;23.88;;;;;;;;;;5054640;28;20036;-78
2024/03/07 08:26:44;;;;;;;49.13;26.52;;;;;;;;;;5054980;28;20043;-77
2024/03/07 08:29:11;;;;;;;40.00;25.42;;;;;;;;;;5054070;28;20020;-77
2024/03/07 08:31:37;;;;;;;37.53;23.83;;;;;;;;;;5053846;28;20357;-77
2024/03/07 08:34:04;;;;;;;36.90;23.30;;;;;;;;;;5057259;28;20021;-77
2024/03/07 08:36:30;;;;;;;35.20;23.13;;;;;;;;;;5052741;28;20120;-78
2024/03/07 08:38:56;;;;;;;41.35;25.20;;;;;;;;;;5054323;28;20575;-77
2024/03/07 08:41:22;;;;;;;41.47;26.50;;;;;;;;;;5052229;28;20051;-77
2024/03/07 08:43:49;;;;;;;39.20;23.48;;;;;;;;;;5052949;28;20047;-77
2024/03/07 08:46:15;;;;;;;44.83;25.83;;;;;;;;;;5052510;28;20025;-78
2024/03/07 08:48:41;;;;;;;39.60;24.02;;;;;;;;;;5051782;28;20017;-77
2024/03/07 08:51:13;;;;;;;36.65;22.45;;;;;;;;;;5052034;28;20022;-77
2024/03/07 08:53:39;;;;;;;39.22;23.38;;;;;;;;;;5052737;28;20017;-78
2024/03/07 08:56:05;;;;;;;36.75;22.05;;;;;;;;;;5050506;28;20097;-78
2024/03/07 08:58:31;;;;;;;35.35;22.73;;;;;;;;;;5052366;28;20048;-77
2024/03/07 09:00:58;;;;;;;33.55;22.45;;;;;;;;;;5033362;28;20025;-77
2024/03/07 09:03:25;;;;;;;31.52;20.90;;;;;;;;;;5054712;28;20063;-77
2024/03/07 09:05:52;;;;;;;36.55;21.90;;;;;;;;;;5055527;28;20462;-76
2024/03/07 09:08:18;;;;;;;36.88;21.23;;;;;;;;;;5055368;28;20032;-76
2024/03/07 09:10:44;;;;;;;38.85;24.25;;;;;;;;;;5046973;28;20021;-78
2024/03/07 09:13:10;;;;;;;40.85;26.55;;;;;;;;;;5057622;28;20099;-77
2024/03/07 09:15:37;;;;;;;40.08;25.38;;;;;;;;;;5059312;28;20029;-77
2024/03/07 09:18:03;;;;;;;37.83;22.27;;;;;;;;;;5057708;28;20021;-77
2024/03/07 09:20:31;;;;;;;34.00;20.77;;;;;;;;;;5048054;28;20025;-79
2024/03/07 09:23:00;;;;;;;26.58;17.98;;;;;;;;;;5056685;28;20029;-78
2024/03/07 09:25:27;;;;;;;32.63;21.65;;;;;;;;;;5056757;28;20375;-79
2024/03/07 09:27:54;;;;;;;32.40;21.42;;;;;;;;;;5056863;28;20079;-78
2024/03/07 09:30:24;;;;;;;35.03;22.65;;;;;;;;;;5056222;28;20024;-78
2024/03/07 09:32:51;;;;;;;37.67;24.60;;;;;;;;;;5045142;28;20495;-79
2024/03/07 09:35:17;;;;;;;34.25;21.75;;;;;;;;;;5038132;28;20025;-78
2024/03/07 09:37:44;;;;;;;41.85;25.52;;;;;;;;;;5040096;28;20028;-76
2024/03/07 09:40:13;;;;;;;34.10;22.15;;;;;;;;;;5055570;28;20071;-78
2024/03/07 09:42:44;;;;;;;39.35;25.65;;;;;;;;;;5051185;28;20029;-78
2024/03/07 09:45:14;;;;;;;34.97;23.52;;;;;;;;;;5055529;28;20044;-79
2024/03/07 09:47:40;;;;;;;37.35;22.80;;;;;;;;;;5054535;28;20013;-78
2024/03/07 09:50:08;;;;;;;34.45;23.08;;;;;;;;;;5042592;28;20028;-78
2024/03/07 09:52:35;;;;;;;38.75;24.45;;;;;;;;;;5046969;28;20108;-78
2024/03/07 09:55:02;;;;;;;34.72;21.95;;;;;;;;;;5055628;28;20398;-75
2024/03/07 09:57:29;;;;;;;30.40;20.02;;;;;;;;;;5058275;28;20052;-78
2024/03/07 09:59:56;;;;;;;26.10;17.70;;;;;;;;;;5037143;28;20036;-76
2024/03/07 10:02:24;;;;;;;27.17;16.60;;;;;;;;;;5035703;28;20025;-79
2024/03/07 10:04:52;;;;;;;24.00;16.25;;;;;;;;;;5054235;28;20475;-77
2024/03/07 10:07:18;;;;;;;29.58;20.05;;;;;;;;;;5054941;28;20021;-75
2024/03/07 10:09:45;;;;;;;32.65;20.98;;;;;;;;;;5054446;28;20459;-78
2024/03/07 10:12:15;;;;;;;36.42;22.55;;;;;;;;;;5053461;28;20157;-77
2024/03/07 10:14:50;;;;;;;31.85;20.35;;;;;;;;;;5052723;28;20514;-78
2024/03/07 10:17:17;;;;;;;28.20;17.83;;;;;;;;;;5055096;28;20109;-79
2024/03/07 10:19:47;;;;;;;33.67;20.92;;;;;;;;;;5053795;28;20143;-76
2024/03/07 10:22:17;;;;;;;37.03;23.17;;;;;;;;;;5054362;28;20124;-77
2024/03/07 10:24:50;;;;;;;38.58;23.40;;;;;;;;;;5055409;28;20527;-76
2024/03/07 10:27:20;;;;;;;37.20;21.98;;;;;;;;;;5055387;28;20036;-78
2024/03/07 10:29:52;;;;;;;38.45;23.73;;;;;;;;;;5049044;28;20032;-76
2024/03/07 10:32:25;;;;;;;33.80;21.83;;;;;;;;;;5060148;28;20032;-76
2024/03/07 10:34:51;;;;;;;33.03;21.20;;;;;;;;;;5069225;28;20049;-76
2024/03/07 10:37:20;;;;;;;27.77;19.23;;;;;;;;;;5069675;28;20057;-77
2024/03/07 10:39:50;;;;;;;27.88;19.25;;;;;;;;;;5062927;28;20021;-76
2024/03/07 10:42:16;;;;;;;24.55;16.60;;;;;;;;;;5063747;28;20025;-76
2024/03/07 10:44:47;;;;;;;35.75;22.77;;;;;;;;;;5060569;28;20418;-76
2024/03/07 10:47:17;;;;;;;37.83;23.08;;;;;;;;;;5059520;28;20534;-76
2024/03/07 10:50:04;;;;;;;33.63;20.75;;;;;;;;;;5062913;28;20023;-77
2024/03/07 10:52:50;;;;;;;26.80;17.67;;;;;;;;;;5056617;28;20021;-77
2024/03/07 10:55:25;;;;;;;24.25;15.40;;;;;;;;;;5023598;28;20037;-77
2024/03/07 10:57:55;;;;;;;21.33;14.52;;;;;;;;;;5054184;28;20020;-78
2024/03/07 11:00:35;;;;;;;19.67;13.52;;;;;;;;;;5043862;28;20028;-77
2024/03/07 11:03:06;;;;;;;18.45;12.82;;;;;;;;;;5029177;28;20021;-78
2024/03/07 11:05:34;;;;;;;21.63;13.50;;;;;;;;;;5036636;28;20028;-77
2024/03/07 11:08:11;;;;;;;21.10;13.73;;;;;;;;;;5044579;28;20045;-78
2024/03/07 11:10:40;;;;;;;17.05;12.52;;;;;;;;;;5038824;28;20017;-77
2024/03/07 11:13:11;;;;;;;18.10;12.23;;;;;;;;;;5054967;28;20029;-77
2024/03/07 11:15:38;;;;;;;16.65;11.65;;;;;;;;;;5044288;28;20423;-78
2024/03/07 11:18:04;;;;;;;25.50;17.15;;;;;;;;;;5055314;28;20021;-77
2024/03/07 11:20:37;;;;;;;22.70;15.70;;;;;;;;;;5055817;28;20023;-77
2024/03/07 11:23:31;;;;;;;29.20;17.85;;;;;;;;;;5060385;28;20025;-77
2024/03/07 11:26:07;;;;;;;31.70;20.40;;;;;;;;;;5040148;28;20119;-77
2024/03/07 11:28:37;;;;;;;34.42;21.85;;;;;;;;;;5046331;28;20108;-76
2024/03/07 11:31:22;;;;;;;26.63;19.00;;;;;;;;;;5053623;28;20013;-76
2024/03/07 11:34:07;;;;;;;25.33;17.33;;;;;;;;;;5029417;28;20049;-78
2024/03/07 11:36:45;;;;;;;25.73;17.90;;;;;;;;;;5045380;28;20024;-77
2024/03/07 11:39:36;;;;;;;22.77;15.60;;;;;;;;;;5056003;28;20033;-79
2024/03/07 11:42:03;;;;;;;23.70;15.43;;;;;;;;;;5051036;28;20028;-77
2024/03/07 11:44:35;;;;;;;26.88;16.45;;;;;;;;;;5065460;28;20013;-80
2024/03/07 11:47:08;;;;;;;23.73;16.17;;;;;;;;;;5065602;28;20032;-77
2024/03/07 11:49:37;;;;;;;22.58;15.90;;;;;;;;;;5065931;28;20029;-78
2024/03/07 11:52:11;;;;;;;23.52;14.88;;;;;;;;;;5065653;28;20028;-77
2024/03/07 11:54:41;;;;;;;19.23;12.88;;;;;;;;;;5051988;28;20036;-79
2024/03/07 11:57:12;;;;;;;20.75;13.73;;;;;;;;;;5054143;28;20044;-76
2024/03/07 11:59:45;;;;;;;21.30;14.07;;;;;;;;;;5046544;28;20092;-76
2024/03/07 12:02:21;;;;;;;18.45;12.32;;;;;;;;;;5053853;28;20029;-77
2024/03/07 12:04:50;;;;;;;18.27;12.27;;;;;;;;;;5053836;28;20048;-79
2024/03/07 12:07:22;;;;;;;19.70;14.35;;;;;;;;;;5034972;28;20036;-78
2024/03/07 12:09:55;;;;;;;25.80;16.08;;;;;;;;;;5051830;28;20014;-77
2024/03/07 12:12:22;;;;;;;24.13;16.05;;;;;;;;;;5054185;28;20101;-79
2024/03/07 12:14:51;;;;;;;21.65;15.07;;;;;;;;;;5056535;28;20376;-78
2024/03/07 12:17:17;;;;;;;19.13;13.52;;;;;;;;;;5055244;28;20049;-78
2024/03/07 12:19:44;;;;;;;23.60;15.65;;;;;;;;;;5036348;28;20399;-78
2024/03/07 12:25:21;;;;;;;25.90;17.50;;;;;;;;;;5053886;28;20101;-77
2024/03/07 12:27:48;;;;;;;24.23;16.23;;;;;;;;;;5053832;28;20493;-78
2024/03/07 12:30:19;;;;;;;24.70;15.77;;;;;;;;;;5038659;28;20100;-78
2024/03/07 12:32:52;;;;;;;26.65;16.67;;;;;;;;;;5038185;28;20021;-77
2024/03/07 12:35:18;;;;;;;25.77;16.08;;;;;;;;;;5050236;28;20024;-76
2024/03/07 12:37:46;;;;;;;30.58;18.52;;;;;;;;;;5064338;28;20021;-79
2024/03/07 12:40:19;;;;;;;24.60;16.92;;;;;;;;;;5066221;28;20025;-78
2024/03/07 12:42:48;;;;;;;25.02;17.65;;;;;;;;;;5068813;28;20047;-77
2024/03/07 12:45:17;;;;;;;28.17;17.17;;;;;;;;;;5064985;28;20581;-77
2024/03/07 12:47:44;;;;;;;25.58;15.77;;;;;;;;;;5062289;28;20075;-78
2024/03/07 12:50:13;;;;;;;24.75;16.73;;;;;;;;;;5061932;28;20081;-77
2024/03/07 12:52:40;;;;;;;28.05;16.70;;;;;;;;;;5045906;28;20069;-78
2024/03/07 12:55:07;;;;;;;27.45;16.30;;;;;;;;;;5058853;28;20029;-76
2024/03/07 12:57:33;;;;;;;21.80;14.70;;;;;;;;;;5058444;28;20021;-77
2024/03/07 12:59:59;;;;;;;20.35;13.48;;;;;;;;;;5056311;28;20037;-76
2024/03/07 13:02:29;;;;;;;19.92;14.13;;;;;;;;;;5057257;28;20530;-77
2024/03/07 13:04:56;;;;;;;22.45;13.95;;;;;;;;;;5056969;28;20024;-78
2024/03/07 13:07:23;;;;;;;23.60;16.58;;;;;;;;;;5057376;28;20045;-77
2024/03/07 13:09:49;;;;;;;25.50;17.55;;;;;;;;;;5055402;28;20527;-77
2024/03/07 13:12:15;;;;;;;27.75;16.73;;;;;;;;;;5054346;28;20024;-76
2024/03/07 13:14:44;;;;;;;31.67;19.20;;;;;;;;;;5057329;28;20021;-76
2024/03/07 13:17:13;;;;;;;30.27;19.40;;;;;;;;;;5038202;28;20029;-78
2024/03/07 13:19:41;;;;;;;32.30;19.85;;;;;;;;;;5038211;28;20029;-77
2024/03/07 13:22:07;;;;;;;30.30;18.70;;;;;;;;;;5056546;28;20043;-77
2024/03/07 13:24:34;;;;;;;27.92;18.10;;;;;;;;;;5056171;28;20021;-77
2024/03/07 13:27:01;;;;;;;32.60;18.75;;;;;;;;;;5058310;28;20028;-77
2024/03/07 13:29:28;;;;;;;26.67;16.05;;;;;;;;;;5056986;28;20021;-76
2024/03/07 13:31:56;;;;;;;23.58;14.38;;;;;;;;;;5040122;28;20036;-77
2024/03/07 13:34:25;;;;;;;20.27;13.48;;;;;;;;;;5067107;28;20025;-78
2024/03/07 13:36:51;;;;;;;20.80;13.02;;;;;;;;;;5059788;28;20041;-79
2024/03/07 13:39:17;;;;;;;25.42;15.95;;;;;;;;;;5065723;28;20020;-78
2024/03/07 13:41:48;;;;;;;26.25;16.50;;;;;;;;;;5076972;28;20029;-77
2024/03/07 13:44:14;;;;;;;25.00;15.32;;;;;;;;;;5064465;28;20033;-77
2024/03/07 13:46:41;;;;;;;23.52;14.55;;;;;;;;;;5055592;28;20545;-77
2024/03/07 13:49:12;;;;;;;21.92;13.35;;;;;;;;;;5055841;28;20025;-78
2024/03/07 13:51:40;;;;;;;23.80;14.95;;;;;;;;;;5058418;28;20032;-77
2024/03/07 13:54:26;;;;;;;20.38;13.32;;;;;;;;;;5056638;28;20110;-77
2024/03/07 13:57:07;;;;;;;22.02;14.15;;;;;;;;;;5037869;28;20026;-77
2024/03/07 13:59:56;;;;;;;25.58;14.75;;;;;;;;;;5036898;28;20044;-77
2024/03/07 14:02:39;;;;;;;19.23;13.23;;;;;;;;;;5055411;28;20029;-78
2024/03/07 14:05:15;;;;;;;24.02;14.93;;;;;;;;;;5056190;28;20051;-77
2024/03/07 14:08:00;;;;;;;25.63;16.08;;;;;;;;;;5039723;28;20025;-77
2024/03/07 14:10:30;;;;;;;26.73;16.30;;;;;;;;;;5054184;28;20091;-77
2024/03/07 14:13:18;;;;;;;22.60;15.23;;;;;;;;;;5059763;28;20013;-78
2024/03/07 14:15:47;;;;;;;34.50;19.80;;;;;;;;;;5035712;28;20031;-78
2024/03/07 14:18:22;;;;;;;28.30;17.70;;;;;;;;;;5035819;28;20025;-77
2024/03/07 14:20:56;;;;;;;27.30;16.35;;;;;;;;;;5054196;28;20025;-78
2024/03/07 14:23:41;;;;;;;28.77;17.55;;;;;;;;;;5054695;28;20067;-77
2024/03/07 14:26:27;;;;;;;29.38;19.25;;;;;;;;;;5054656;28;20502;-78
2024/03/07 14:29:19;;;;;;;25.65;17.45;;;;;;;;;;5054556;28;20152;-78
2024/03/07 14:31:49;;;;;;;24.48;16.27;;;;;;;;;;5002868;28;20041;-77
2024/03/07 14:34:34;;;;;;;23.13;14.85;;;;;;;;;;5054134;28;20021;-77
2024/03/07 14:37:06;;;;;;;26.67;16.42;;;;;;;;;;5054329;28;20352;-78
2024/03/07 14:39:35;;;;;;;31.08;18.35;;;;;;;;;;5053667;28;20424;-77
2024/03/07 14:42:14;;;;;;;34.92;21.70;;;;;;;;;;5049624;28;20032;-76
2024/03/07 14:44:46;;;;;;;31.10;19.00;;;;;;;;;;5046886;28;20013;-78
2024/03/07 14:47:14;;;;;;;30.10;17.60;;;;;;;;;;5055561;28;20029;-79
2024/03/07 14:49:40;;;;;;;29.70;18.55;;;;;;;;;;5050006;28;20274;-79
2024/03/07 14:52:10;;;;;;;28.20;16.92;;;;;;;;;;5058024;28;20059;-76
2024/03/07 14:54:39;;;;;;;27.95;18.15;;;;;;;;;;5067973;28;20077;-78
2024/03/07 14:57:05;;;;;;;33.33;20.50;;;;;;;;;;5060065;28;20037;-79
2024/03/07 14:59:32;;;;;;;33.47;19.67;;;;;;;;;;5056335;28;20049;-78
2024/03/07 15:01:59;;;;;;;27.55;17.52;;;;;;;;;;5055699;28;20074;-78
2024/03/07 15:04:26;;;;;;;25.25;16.77;;;;;;;;;;5037694;28;20032;-77
2024/03/07 15:06:56;;;;;;;26.75;16.50;;;;;;;;;;5054543;28;20020;-77
2024/03/07 15:09:23;;;;;;;27.17;17.35;;;;;;;;;;5051448;28;20017;-78
2024/03/07 15:11:49;;;;;;;30.95;17.30;;;;;;;;;;5054117;28;20517;-79
2024/03/07 15:14:15;;;;;;;26.52;16.48;;;;;;;;;;5055624;28;20473;-78
2024/03/07 15:16:42;;;;;;;24.15;16.40;;;;;;;;;;5056376;28;20028;-77
2024/03/07 15:19:09;;;;;;;23.35;15.82;;;;;;;;;;5048285;28;20024;-77
2024/03/07 15:21:39;;;;;;;20.42;13.40;;;;;;;;;;5054382;28;20021;-76
2024/03/07 15:24:05;;;;;;;20.27;13.90;;;;;;;;;;5054020;28;20017;-77
2024/03/07 15:26:32;;;;;;;21.90;12.02;;;;;;;;;;5027997;28;20079;-77
2024/03/07 15:29:00;;;;;;;18.17;12.05;;;;;;;;;;5052830;28;20016;-77
2024/03/07 15:31:26;;;;;;;15.73;10.93;;;;;;;;;;5035835;28;20355;-76
2024/03/07 15:33:52;;;;;;;20.45;13.30;;;;;;;;;;5041866;28;20104;-76
2024/03/07 15:36:18;;;;;;;18.90;12.25;;;;;;;;;;5053679;28;20087;-76
2024/03/07 15:38:45;;;;;;;13.55;9.80;;;;;;;;;;5055023;28;20041;-77